Time;durP1;ratioP1;P1;durP2;ratioP2;P2;SDS_P1;SDS_P2;PMS_P1;PMS_P2;Temp;Humidity;BMP_temperature;BMP_pressure;BME280_temperature;BME280_humidity;BME280_pressure;Samples;Min_cycle;Max_cycle;Signal;HPM_P1;HPM_P2
2023/12/08 00:01:24;;;;;;;8.10;5.73;;;4.60;1.00;;;;;;5057879;28;20208;-76
2023/12/08 00:03:52;;;;;;;6.60;5.97;;;4.50;1.00;;;;;;5074547;28;20213;-75
2023/12/08 00:06:20;;;;;;;7.13;5.43;;;4.40;1.00;;;;;;5073346;28;20552;-76
2023/12/08 00:08:48;;;;;;;6.93;5.50;;;4.50;1.00;;;;;;5056761;28;20191;-75
2023/12/08 00:11:15;;;;;;;7.53;6.33;;;4.60;1.00;;;;;;5073601;28;20542;-76
2023/12/08 00:13:44;;;;;;;7.83;5.83;;;4.50;1.00;;;;;;5074702;28;20231;-75
2023/12/08 00:16:11;;;;;;;7.10;5.97;;;4.60;1.00;;;;;;5048310;28;20198;-75
2023/12/08 00:18:40;;;;;;;7.40;5.70;;;4.60;1.00;;;;;;5054843;28;20200;-75
2023/12/08 00:21:07;;;;;;;7.97;5.80;;;4.70;1.00;;;;;;5053834;28;20197;-76
2023/12/08 00:23:36;;;;;;;7.73;5.67;;;4.80;1.00;;;;;;5070637;28;20211;-75
2023/12/08 00:26:04;;;;;;;8.10;6.37;;;4.90;1.00;;;;;;5045342;28;20204;-76
2023/12/08 00:28:31;;;;;;;8.60;6.37;;;4.80;1.00;;;;;;5055975;28;20202;-75
2023/12/08 00:30:59;;;;;;;10.47;7.40;;;4.60;1.00;;;;;;5056227;28;20206;-76
2023/12/08 00:33:26;;;;;;;10.30;7.70;;;4.70;1.00;;;;;;5056406;28;20232;-75
2023/12/08 00:35:54;;;;;;;9.10;6.60;;;4.50;1.00;;;;;;5050132;28;20194;-75
2023/12/08 00:38:21;;;;;;;9.60;7.10;;;4.30;99.90;;;;;;5042170;28;20560;-75
2023/12/08 00:40:50;;;;;;;12.30;7.77;;;4.20;1.00;;;;;;5056697;28;20191;-76
2023/12/08 00:43:17;;;;;;;9.83;7.33;;;4.30;1.00;;;;;;5046751;28;20686;-76
2023/12/08 00:45:45;;;;;;;9.87;7.47;;;4.50;1.00;;;;;;5055902;28;20202;-75
2023/12/08 00:48:12;;;;;;;10.23;7.40;;;4.40;1.00;;;;;;5071471;28;20209;-76
2023/12/08 00:50:40;;;;;;;9.50;7.77;;;4.40;1.00;;;;;;5056099;28;20519;-76
2023/12/08 00:53:07;;;;;;;7.90;6.67;;;4.30;1.00;;;;;;5056082;28;20223;-75
2023/12/08 00:55:35;;;;;;;9.33;7.17;;;4.40;1.00;;;;;;5055733;28;20222;-76
2023/12/08 00:58:04;;;;;;;11.33;7.73;;;4.30;1.00;;;;;;5047112;28;20193;-76
2023/12/08 01:00:31;;;;;;;6.23;4.33;;;4.30;1.00;;;;;;5073603;28;20206;-75
2023/12/08 01:02:58;;;;;;;6.13;4.87;;;4.30;1.00;;;;;;5056196;28;20218;-75
2023/12/08 01:05:26;;;;;;;5.77;4.20;;;4.60;99.90;;;;;;5073619;28;20178;-75
2023/12/08 01:07:53;;;;;;;4.83;3.67;;;4.60;57.10;;;;;;5052497;28;20209;-75
2023/12/08 01:10:21;;;;;;;5.83;4.30;;;4.70;1.00;;;;;;5046675;28;20202;-75
2023/12/08 01:12:48;;;;;;;5.23;4.43;;;4.80;1.00;;;;;;5042053;28;20217;-75
2023/12/08 01:15:17;;;;;;;5.00;4.13;;;4.80;1.00;;;;;;5053454;28;20194;-75
2023/12/08 01:17:44;;;;;;;5.47;4.53;;;4.80;1.00;;;;;;5046886;28;20594;-75
2023/12/08 01:20:12;;;;;;;6.07;4.40;;;4.80;1.00;;;;;;5054271;28;20218;-75
2023/12/08 01:22:39;;;;;;;5.97;4.70;;;4.80;1.00;;;;;;5035595;28;20229;-75
2023/12/08 01:25:07;;;;;;;5.83;5.00;;;4.80;1.00;;;;;;5053295;28;20203;-75
2023/12/08 01:27:35;;;;;;;6.33;5.10;;;4.80;1.00;;;;;;5056238;28;20204;-75
2023/12/08 01:30:03;;;;;;;7.73;5.30;;;4.80;1.00;;;;;;5044638;28;20189;-75
2023/12/08 01:32:32;;;;;;;7.07;4.87;;;4.70;1.00;;;;;;5062452;28;20211;-75
2023/12/08 01:34:59;;;;;;;6.27;4.90;;;4.80;1.00;;;;;;5071894;28;20543;-75
2023/12/08 01:37:27;;;;;;;6.53;4.80;;;4.80;1.00;;;;;;5042766;28;20205;-75
2023/12/08 01:39:55;;;;;;;6.37;5.00;;;4.80;1.00;;;;;;5055100;28;20221;-75
2023/12/08 01:42:22;;;;;;;6.23;4.83;;;4.70;1.00;;;;;;5050260;28;20687;-75
2023/12/08 01:44:50;;;;;;;7.27;4.97;;;4.80;1.00;;;;;;5046687;28;20211;-75
2023/12/08 01:47:17;;;;;;;8.10;5.90;;;4.90;1.00;;;;;;5044779;28;20572;-75
2023/12/08 01:49:47;;;;;;;7.87;5.13;;;4.90;1.00;;;;;;5060903;28;20194;-75
2023/12/08 01:52:24;;;;;;;7.20;5.30;;;4.90;1.00;;;;;;5059957;28;20596;-75
2023/12/08 01:54:57;;;;;;;7.33;4.87;;;5.10;1.00;;;;;;5051235;28;20201;-75
2023/12/08 01:57:25;;;;;;;6.83;5.63;;;5.00;1.00;;;;;;5055509;28;20212;-75
2023/12/08 01:59:52;;;;;;;6.20;5.13;;;5.00;1.00;;;;;;5050435;28;20219;-75
2023/12/08 02:02:21;;;;;;;8.27;5.10;;;5.00;1.00;;;;;;5053374;28;20219;-75
2023/12/08 02:04:50;;;;;;;6.97;5.13;;;5.00;1.00;;;;;;5053561;28;20211;-75
2023/12/08 02:07:18;;;;;;;6.90;5.00;;;5.00;1.00;;;;;;5054276;28;20206;-75
2023/12/08 02:09:46;;;;;;;6.67;5.43;;;5.10;1.00;;;;;;5045616;28;20476;-75
2023/12/08 02:12:15;;;;;;;8.20;6.20;;;5.10;1.00;;;;;;5045580;28;20704;-75
2023/12/08 02:14:42;;;;;;;7.03;5.83;;;5.20;1.00;;;;;;5069265;28;20199;-75
2023/12/08 02:17:14;;;;;;;6.53;4.87;;;5.10;1.00;;;;;;5048644;28;20207;-76
2023/12/08 02:19:42;;;;;;;6.87;5.00;;;5.10;1.00;;;;;;5047484;28;20205;-75
2023/12/08 02:22:11;;;;;;;6.20;5.23;;;5.10;1.00;;;;;;5055874;28;20211;-75
2023/12/08 02:24:39;;;;;;;6.40;5.47;;;5.00;1.00;;;;;;5070255;28;20564;-75
2023/12/08 02:27:08;;;;;;;8.43;5.83;;;5.00;1.00;;;;;;5050065;28;20561;-75
2023/12/08 02:29:35;;;;;;;8.47;5.73;;;5.10;1.00;;;;;;5039537;28;20198;-75
2023/12/08 02:32:08;;;;;;;7.17;5.47;;;5.10;1.00;;;;;;5050475;28;20192;-75
2023/12/08 02:34:36;;;;;;;8.87;5.77;;;5.10;1.00;;;;;;5044812;28;20197;-75
2023/12/08 02:37:05;;;;;;;7.10;5.60;;;5.00;1.00;;;;;;5042394;28;20202;-75
2023/12/08 02:39:35;;;;;;;7.57;6.13;;;5.00;1.00;;;;;;5040195;28;20191;-75
2023/12/08 02:42:04;;;;;;;6.90;5.60;;;5.00;1.00;;;;;;5043143;28;20198;-75
2023/12/08 02:44:31;;;;;;;7.60;5.50;;;5.00;1.00;;;;;;5053956;28;20205;-75
2023/12/08 02:47:00;;;;;;;6.37;4.97;;;5.10;1.00;;;;;;5062216;28;20200;-75
2023/12/08 02:49:27;;;;;;;6.63;5.17;;;5.10;1.00;;;;;;5054350;28;20216;-75
2023/12/08 02:51:54;;;;;;;7.50;5.43;;;5.00;1.00;;;;;;5053789;28;20190;-75
2023/12/08 02:54:22;;;;;;;7.47;5.60;;;5.00;1.00;;;;;;5053226;28;20571;-75
2023/12/08 02:56:49;;;;;;;6.07;5.43;;;4.90;1.00;;;;;;5071961;28;20182;-75
2023/12/08 02:59:18;;;;;;;7.00;5.73;;;4.80;1.00;;;;;;5040780;28;20208;-75
2023/12/08 03:01:45;;;;;;;8.20;5.63;;;4.90;1.00;;;;;;5053770;28;20705;-75
2023/12/08 03:04:13;;;;;;;6.37;5.20;;;4.90;1.00;;;;;;5053228;28;20217;-75
2023/12/08 03:06:40;;;;;;;7.73;5.47;;;4.80;1.00;;;;;;5070623;28;20203;-75
2023/12/08 03:09:08;;;;;;;7.73;5.63;;;4.80;1.00;;;;;;5044845;28;20200;-75
2023/12/08 03:11:35;;;;;;;7.63;6.03;;;4.80;1.00;;;;;;5049633;28;20675;-75
2023/12/08 03:14:02;;;;;;;8.40;5.83;;;4.80;1.00;;;;;;5067765;28;20214;-75
2023/12/08 03:16:31;;;;;;;7.87;5.53;;;4.80;1.00;;;;;;5042783;28;20194;-75
2023/12/08 03:18:58;;;;;;;7.53;5.93;;;4.80;1.00;;;;;;5051332;28;20656;-75
2023/12/08 03:21:27;;;;;;;7.47;5.83;;;4.70;1.00;;;;;;5057905;28;20584;-75
2023/12/08 03:23:54;;;;;;;6.70;5.83;;;4.70;1.00;;;;;;5051146;28;20218;-74
2023/12/08 03:26:21;;;;;;;7.80;5.73;;;4.60;1.00;;;;;;5054234;28;20202;-75
2023/12/08 03:28:49;;;;;;;7.87;5.97;;;4.60;1.00;;;;;;5041014;28;20199;-75
2023/12/08 03:31:24;;;;;;;9.33;6.33;;;4.60;4.10;;;;;;5042278;28;20194;-75
2023/12/08 03:33:52;;;;;;;9.03;5.60;;;4.60;99.90;;;;;;5053502;28;20219;-75
2023/12/08 03:36:20;;;;;;;9.60;6.50;;;4.50;99.90;;;;;;5055267;28;20219;-75
2023/12/08 03:38:47;;;;;;;8.13;6.57;;;4.40;1.00;;;;;;5056089;28;20673;-75
2023/12/08 03:41:15;;;;;;;8.93;6.90;;;4.40;99.90;;;;;;5056229;28;20705;-75
2023/12/08 03:43:42;;;;;;;9.57;6.97;;;4.30;99.90;;;;;;5055465;28;20219;-75
2023/12/08 03:46:09;;;;;;;9.07;7.07;;;4.30;99.90;;;;;;5051271;28;20204;-75
2023/12/08 03:48:37;;;;;;;8.07;6.17;;;4.30;1.00;;;;;;5052252;28;20783;-75
2023/12/08 03:51:06;;;;;;;9.33;7.23;;;4.30;1.00;;;;;;5054692;28;20194;-75
2023/12/08 03:53:34;;;;;;;8.40;6.77;;;4.30;1.00;;;;;;5064763;28;20225;-75
2023/12/08 03:56:02;;;;;;;8.77;7.37;;;4.20;99.90;;;;;;5053956;28;20199;-75
2023/12/08 03:58:30;;;;;;;9.00;7.27;;;4.10;1.00;;;;;;5053645;28;20210;-75
2023/12/08 04:00:57;;;;;;;10.30;7.33;;;4.20;1.00;;;;;;5051734;28;20239;-75
2023/12/08 04:03:25;;;;;;;9.80;6.90;;;4.20;99.90;;;;;;5056046;28;20219;-75
2023/12/08 04:05:52;;;;;;;9.63;7.23;;;4.20;99.30;;;;;;5068798;28;20197;-75
2023/12/08 04:08:21;;;;;;;9.00;6.77;;;4.10;99.80;;;;;;5047026;28;20202;-75
2023/12/08 04:10:48;;;;;;;11.67;7.80;;;4.10;1.00;;;;;;5052382;28;20198;-75
2023/12/08 04:13:16;;;;;;;10.23;7.67;;;4.10;17.40;;;;;;5069973;28;20212;-75
2023/12/08 04:15:43;;;;;;;10.30;7.33;;;4.00;99.90;;;;;;5054071;28;20208;-75
2023/12/08 04:18:10;;;;;;;8.97;7.47;;;4.00;1.00;;;;;;5041008;28;20561;-75
2023/12/08 04:20:38;;;;;;;10.30;7.63;;;4.10;99.90;;;;;;5067310;28;20199;-75
2023/12/08 04:23:05;;;;;;;10.20;8.27;;;4.20;99.90;;;;;;5048537;28;20228;-75
2023/12/08 04:25:34;;;;;;;9.30;6.93;;;4.20;99.90;;;;;;5063015;28;20199;-75
2023/12/08 04:28:02;;;;;;;8.67;6.53;;;4.10;69.30;;;;;;5038831;28;20190;-75
2023/12/08 04:30:30;;;;;;;9.77;7.40;;;4.00;1.00;;;;;;5046595;28;20199;-75
2023/12/08 04:32:58;;;;;;;9.43;7.67;;;4.10;99.90;;;;;;5047580;28;20228;-75
2023/12/08 04:35:25;;;;;;;11.47;8.07;;;4.10;1.00;;;;;;5047506;28;20194;-75
2023/12/08 04:37:53;;;;;;;9.37;7.53;;;4.10;1.00;;;;;;5036364;28;20217;-75
2023/12/08 04:40:21;;;;;;;10.70;7.43;;;4.00;1.00;;;;;;5054601;28;20657;-75
2023/12/08 04:42:49;;;;;;;9.33;7.70;;;4.10;99.90;;;;;;5069135;28;20218;-75
2023/12/08 04:45:17;;;;;;;12.00;7.83;;;4.20;66.60;;;;;;5053378;28;20216;-75
2023/12/08 04:47:44;;;;;;;10.13;7.50;;;4.20;1.00;;;;;;5052937;28;20768;-75
2023/12/08 04:50:11;;;;;;;9.50;7.27;;;4.20;1.00;;;;;;5037809;28;20685;-75
2023/12/08 04:52:39;;;;;;;10.73;7.20;;;4.10;99.90;;;;;;5053905;28;20237;-75
2023/12/08 04:55:07;;;;;;;10.07;7.83;;;4.20;99.90;;;;;;5060469;28;20197;-75
2023/12/08 04:57:34;;;;;;;11.27;7.70;;;4.30;99.90;;;;;;5073889;28;20194;-75
2023/12/08 05:00:04;;;;;;;9.73;7.67;;;4.30;1.00;;;;;;5059764;28;20194;-75
2023/12/08 05:02:32;;;;;;;9.03;7.53;;;4.30;99.90;;;;;;5070285;28;20219;-75
2023/12/08 05:04:59;;;;;;;9.30;7.77;;;4.40;99.90;;;;;;5053873;28;20193;-75
2023/12/08 05:07:28;;;;;;;12.27;8.47;;;4.30;1.00;;;;;;5040562;28;20215;-75
2023/12/08 05:09:56;;;;;;;11.23;8.17;;;4.20;6.40;;;;;;5055681;28;20200;-75
2023/12/08 05:12:23;;;;;;;11.37;8.07;;;4.30;99.90;;;;;;5055332;28;20210;-75
2023/12/08 05:14:50;;;;;;;10.47;7.93;;;4.50;99.90;;;;;;5069972;28;20186;-75
2023/12/08 05:17:19;;;;;;;11.60;8.47;;;4.50;1.00;;;;;;5055915;28;20199;-75
2023/12/08 05:19:46;;;;;;;11.83;7.80;;;4.30;99.90;;;;;;5055389;28;20653;-76
2023/12/08 05:22:14;;;;;;;11.17;8.00;;;4.40;1.00;;;;;;5055520;28;20229;-75
2023/12/08 05:24:41;;;;;;;13.97;9.23;;;4.40;1.00;;;;;;5072612;28;20189;-75
2023/12/08 05:27:09;;;;;;;14.20;8.40;;;4.40;1.00;;;;;;5055856;28;20208;-75
2023/12/08 05:29:36;;;;;;;13.47;9.03;;;4.30;1.00;;;;;;5055499;28;20204;-75
2023/12/08 05:32:04;;;;;;;11.80;9.03;;;4.20;99.90;;;;;;5055800;28;20209;-75
2023/12/08 05:34:33;;;;;;;12.80;9.37;;;4.20;99.90;;;;;;5054628;28;20204;-75
2023/12/08 05:37:00;;;;;;;11.67;8.33;;;4.20;1.00;;;;;;5055320;28;20207;-75
2023/12/08 05:39:27;;;;;;;13.30;9.23;;;4.10;1.00;;;;;;5055426;28;20198;-75
2023/12/08 05:41:55;;;;;;;11.57;8.70;;;4.20;99.90;;;;;;5054809;28;20213;-75
2023/12/08 05:44:22;;;;;;;10.87;8.43;;;4.10;1.00;;;;;;5054781;28;20210;-75
2023/12/08 05:46:49;;;;;;;11.83;8.73;;;4.10;99.90;;;;;;5055012;28;20212;-75
2023/12/08 05:49:18;;;;;;;10.73;8.03;;;4.10;99.90;;;;;;5054441;28;20200;-75
2023/12/08 05:51:46;;;;;;;13.43;8.97;;;4.10;1.00;;;;;;5054355;28;20207;-75
2023/12/08 05:54:14;;;;;;;11.57;8.37;;;4.10;1.00;;;;;;5070710;28;20232;-75
2023/12/08 05:56:41;;;;;;;10.90;8.87;;;4.10;99.90;;;;;;5064386;28;20585;-75
2023/12/08 05:59:09;;;;;;;13.93;9.53;;;4.20;99.90;;;;;;5053561;28;20202;-75
2023/12/08 06:01:36;;;;;;;12.60;8.73;;;4.10;99.90;;;;;;5053671;28;20222;-75
2023/12/08 06:04:04;;;;;;;10.83;8.63;;;4.10;1.00;;;;;;5046567;28;20418;-75
2023/12/08 06:06:32;;;;;;;11.40;9.13;;;4.10;99.90;;;;;;5070629;28;20199;-75
2023/12/08 06:09:00;;;;;;;12.30;9.40;;;4.10;1.00;;;;;;5054115;28;20194;-75
2023/12/08 06:11:28;;;;;;;14.13;9.00;;;4.10;1.00;;;;;;5053430;28;20566;-75
2023/12/08 06:13:56;;;;;;;14.60;10.27;;;4.10;1.00;;;;;;5051920;28;20218;-76
2023/12/08 06:16:25;;;;;;;11.77;9.13;;;4.10;62.80;;;;;;5056477;28;20200;-75
2023/12/08 06:18:53;;;;;;;13.40;9.10;;;4.00;68.10;;;;;;5053977;28;20194;-75
2023/12/08 06:21:20;;;;;;;13.80;9.00;;;4.00;61.00;;;;;;5053484;28;20198;-75
2023/12/08 06:23:47;;;;;;;12.70;9.63;;;4.00;99.90;;;;;;5052132;28;20584;-75
2023/12/08 06:26:16;;;;;;;13.27;8.50;;;4.00;99.90;;;;;;5054218;28;20189;-75
2023/12/08 06:28:44;;;;;;;12.30;8.87;;;4.00;99.90;;;;;;5072270;28;20220;-75
2023/12/08 06:31:11;;;;;;;13.93;9.77;;;4.00;99.90;;;;;;5059494;28;20203;-75
2023/12/08 06:33:38;;;;;;;13.40;9.93;;;4.00;99.90;;;;;;5049842;28;20221;-75
2023/12/08 06:36:06;;;;;;;8.07;6.97;;;4.10;99.90;;;;;;5061498;28;20669;-78
2023/12/08 06:38:34;;;;;;;11.27;7.43;;;4.50;1.00;;;;;;5055999;28;20673;-79
2023/12/08 06:41:01;;;;;;;15.03;10.23;;;6.60;99.90;;;;;;5056311;28;20424;-76
2023/12/08 06:43:30;;;;;;;12.60;9.67;;;6.70;99.90;;;;;;5048037;28;20225;-75
2023/12/08 06:45:58;;;;;;;14.40;9.57;;;5.10;1.00;;;;;;5062390;28;20197;-76
2023/12/08 06:48:27;;;;;;;14.17;9.30;;;4.50;99.90;;;;;;5048175;28;20190;-76
2023/12/08 06:50:54;;;;;;;11.90;9.70;;;4.40;99.90;;;;;;5048063;28;20204;-74
2023/12/08 06:53:21;;;;;;;15.23;10.30;;;4.20;99.90;;;;;;5051087;28;20691;-75
2023/12/08 06:56:23;;;;;;;14.83;10.63;;;4.10;99.90;;;;;;5063682;28;20188;-77
2023/12/08 06:58:51;;;;;;;15.37;10.10;;;4.10;99.90;;;;;;5052222;28;20197;-76
2023/12/08 07:01:19;;;;;;;13.67;9.53;;;4.10;99.90;;;;;;5054778;28;20207;-75
2023/12/08 07:03:47;;;;;;;15.60;10.87;;;4.10;99.90;;;;;;5075543;28;20225;-75
2023/12/08 07:06:14;;;;;;;13.80;9.40;;;4.20;99.90;;;;;;5063328;28;20660;-75
2023/12/08 07:08:42;;;;;;;14.93;10.43;;;4.10;99.90;;;;;;5056763;28;20216;-75
2023/12/08 07:11:26;;;;;;;12.97;9.90;;;4.10;99.90;;;;;;5058088;28;20199;-75
2023/12/08 07:14:50;;;;;;;14.10;10.10;;;4.10;99.90;;;;;;5072924;28;20218;-75
2023/12/08 07:17:31;;;;;;;14.53;10.20;;;4.20;99.90;;;;;;5056223;28;20180;-75
2023/12/08 07:20:32;;;;;;;13.80;9.80;;;4.10;99.90;;;;;;5052094;28;20208;-75
2023/12/08 07:23:17;;;;;;;14.80;10.57;;;4.20;99.90;;;;;;5057581;28;20254;-75
2023/12/08 07:25:45;;;;;;;17.50;11.07;;;4.20;99.90;;;;;;5075999;28;20179;-76
2023/12/08 07:28:12;;;;;;;15.57;10.80;;;4.20;99.90;;;;;;5042632;28;20199;-77
2023/12/08 07:30:39;;;;;;;15.37;11.50;;;4.20;99.90;;;;;;5057724;28;20219;-76
2023/12/08 07:33:08;;;;;;;15.20;11.40;;;4.20;99.90;;;;;;5057905;28;20215;-77
2023/12/08 07:35:35;;;;;;;14.40;10.90;;;4.20;99.90;;;;;;5057300;28;20200;-77
2023/12/08 07:38:03;;;;;;;17.27;12.47;;;4.20;99.90;;;;;;5041524;28;20205;-77
2023/12/08 07:40:31;;;;;;;16.03;11.30;;;4.20;99.90;;;;;;5072200;28;20190;-77
2023/12/08 07:43:00;;;;;;;17.40;12.87;;;4.20;99.90;;;;;;5057260;28;20708;-76
2023/12/08 07:45:28;;;;;;;16.53;12.03;;;4.10;99.90;;;;;;5058537;28;20196;-76
2023/12/08 07:47:55;;;;;;;16.27;12.03;;;4.00;99.90;;;;;;5054572;28;20627;-76
2023/12/08 07:50:24;;;;;;;17.83;12.10;;;4.00;99.90;;;;;;5055910;28;20611;-77
2023/12/08 07:52:52;;;;;;;21.23;13.27;;;4.00;99.90;;;;;;5069868;28;20220;-77
2023/12/08 07:55:19;;;;;;;17.87;12.93;;;4.00;99.90;;;;;;5048537;28;20202;-76
2023/12/08 07:57:46;;;;;;;17.90;12.33;;;4.00;99.90;;;;;;5057306;28;20212;-76
2023/12/08 08:00:14;;;;;;;17.73;12.87;;;4.00;99.90;;;;;;5056267;28;20685;-76
2023/12/08 08:02:43;;;;;;;16.77;12.87;;;4.00;99.90;;;;;;5056824;28;20224;-77
2023/12/08 08:26:33;;;;;;;16.33;12.67;;;4.10;99.90;;;;;;5050550;28;20559;-76
2023/12/08 08:29:00;;;;;;;16.40;12.13;;;4.20;99.90;;;;;;5029578;28;20188;-76
2023/12/08 08:31:27;;;;;;;16.30;11.87;;;4.30;99.90;;;;;;5028863;28;20202;-77
2023/12/08 08:33:55;;;;;;;17.80;13.00;;;4.20;99.90;;;;;;5022305;28;20197;-77
2023/12/08 08:36:25;;;;;;;17.83;13.03;;;4.30;99.90;;;;;;5012477;28;20230;-76
2023/12/08 08:38:53;;;;;;;18.80;12.17;;;4.30;99.90;;;;;;5043856;28;20212;-76
2023/12/08 08:41:21;;;;;;;18.57;12.70;;;4.30;99.90;;;;;;5032132;28;20556;-76
2023/12/08 08:43:50;;;;;;;16.73;11.70;;;4.30;99.90;;;;;;5027149;28;20218;-77
2023/12/08 08:46:18;;;;;;;20.37;13.90;;;4.40;99.90;;;;;;5027917;28;20225;-77
2023/12/08 08:48:45;;;;;;;18.73;12.63;;;4.40;99.90;;;;;;5018234;28;20220;-77
2023/12/08 08:51:14;;;;;;;17.27;12.07;;;4.50;99.90;;;;;;5026880;28;20197;-78
2023/12/08 08:53:41;;;;;;;17.90;12.90;;;4.50;99.90;;;;;;5043289;28;20657;-78
2023/12/08 08:56:09;;;;;;;17.40;13.33;;;4.50;99.90;;;;;;5027448;28;20228;-77
2023/12/08 08:58:36;;;;;;;17.07;12.53;;;4.50;99.90;;;;;;5044417;28;20196;-77
2023/12/08 09:01:05;;;;;;;18.27;12.63;;;4.60;99.90;;;;;;5028082;28;20685;-78
2023/12/08 09:03:33;;;;;;;17.97;13.10;;;4.60;99.90;;;;;;5025847;28;20211;-77
2023/12/08 09:06:00;;;;;;;19.27;12.97;;;4.70;99.90;;;;;;5027235;28;20222;-77
2023/12/08 09:08:27;;;;;;;18.93;13.67;;;4.70;99.90;;;;;;5017445;28;20205;-77
2023/12/08 09:10:55;;;;;;;18.93;13.27;;;4.80;99.90;;;;;;5012545;28;20198;-77
2023/12/08 09:13:22;;;;;;;16.93;12.80;;;4.70;99.90;;;;;;5018656;28;20208;-77
2023/12/08 09:15:51;;;;;;;18.77;12.53;;;4.70;99.90;;;;;;5026667;28;20203;-77
2023/12/08 09:18:19;;;;;;;18.73;14.20;;;4.70;99.90;;;;;;5025834;28;20197;-77
2023/12/08 09:20:47;;;;;;;18.43;12.87;;;4.70;99.90;;;;;;5026414;28;20209;-77
2023/12/08 09:23:15;;;;;;;19.50;14.40;;;4.70;99.90;;;;;;5031219;28;20561;-77
2023/12/08 09:25:43;;;;;;;18.67;12.90;;;4.70;99.90;;;;;;5041272;28;20213;-77
2023/12/08 09:28:10;;;;;;;17.63;12.80;;;4.80;99.90;;;;;;5043158;28;20200;-77
2023/12/08 09:30:38;;;;;;;18.50;13.27;;;4.70;99.90;;;;;;5021564;28;20198;-77
2023/12/08 09:33:07;;;;;;;17.10;12.23;;;4.70;99.90;;;;;;5025249;28;20200;-77
2023/12/08 09:35:36;;;;;;;17.73;12.93;;;4.80;99.90;;;;;;5024959;28;20205;-77
2023/12/08 09:38:04;;;;;;;18.63;13.50;;;4.80;99.90;;;;;;5004843;28;20218;-77
2023/12/08 09:40:33;;;;;;;19.50;13.53;;;4.80;99.90;;;;;;4997244;28;20213;-77
2023/12/08 09:43:07;;;;;;;18.93;13.83;;;4.70;99.90;;;;;;5009805;28;20192;-77
2023/12/08 09:45:36;;;;;;;19.57;13.93;;;4.80;99.90;;;;;;4999483;28;20203;-77
2023/12/08 09:48:07;;;;;;;18.10;13.07;;;4.90;99.90;;;;;;5024551;28;20226;-77
2023/12/08 09:50:37;;;;;;;20.13;14.10;;;4.90;99.90;;;;;;4995325;28;20200;-78
2023/12/08 09:53:04;;;;;;;17.47;13.63;;;4.90;99.90;;;;;;4994186;28;20205;-77
2023/12/08 09:55:34;;;;;;;25.30;15.37;;;4.90;99.90;;;;;;5004453;28;20701;-77
2023/12/08 09:58:03;;;;;;;19.43;13.73;;;5.00;99.90;;;;;;5020706;28;20220;-77
2023/12/08 10:00:32;;;;;;;20.73;14.10;;;5.00;99.90;;;;;;5013474;28;20561;-77
2023/12/08 10:03:00;;;;;;;19.60;13.33;;;5.00;99.90;;;;;;5013411;28;20207;-77
2023/12/08 10:05:28;;;;;;;19.53;13.77;;;5.00;99.90;;;;;;5029180;28;20216;-77
2023/12/08 10:07:59;;;;;;;19.30;13.60;;;5.00;99.90;;;;;;5004333;28;20233;-77
2023/12/08 10:10:27;;;;;;;21.27;14.23;;;5.00;99.90;;;;;;5003463;28;20204;-77
2023/12/08 10:12:54;;;;;;;20.40;14.43;;;5.00;99.90;;;;;;4994563;28;20208;-77
2023/12/08 10:15:22;;;;;;;21.07;13.40;;;5.00;99.90;;;;;;5001282;28;20207;-77
2023/12/08 10:17:51;;;;;;;21.07;14.33;;;5.10;99.90;;;;;;5003091;28;20212;-78
2023/12/08 10:20:24;;;;;;;23.73;15.30;;;5.10;99.90;;;;;;5002495;28;20193;-78
2023/12/08 10:22:53;;;;;;;21.77;14.83;;;5.10;99.90;;;;;;5015670;28;20201;-77
2023/12/08 10:25:22;;;;;;;19.73;13.40;;;5.10;99.90;;;;;;5000118;28;20221;-78
2023/12/08 10:51:13;;;;;;;18.17;13.23;;;5.20;99.90;;;;;;5030251;27;20643;-78
2023/12/08 10:53:41;;;;;;;18.67;11.57;;;6.60;99.90;;;;;;5045184;28;20217;-78
2023/12/08 10:56:11;;;;;;;15.40;11.63;;;6.30;99.90;;;;;;5024356;28;20189;-78
2023/12/08 10:58:59;;;;;;;14.43;11.03;;;6.30;99.90;;;;;;5034491;28;20209;-77
2023/12/08 11:01:28;;;;;;;15.73;10.90;;;5.90;99.90;;;;;;5033590;28;20226;-77
2023/12/08 11:04:01;;;;;;;17.47;11.80;;;5.70;99.90;;;;;;5018920;28;20201;-77
2023/12/08 11:06:34;;;;;;;16.50;11.33;;;5.60;99.90;;;;;;5020491;28;20218;-77
2023/12/08 11:09:07;;;;;;;16.77;12.27;;;5.60;99.90;;;;;;5021691;28;20231;-77
2023/12/08 11:11:38;;;;;;;17.50;11.97;;;5.50;99.90;;;;;;5040389;28;20240;-77
2023/12/08 11:14:14;;;;;;;15.37;11.77;;;5.50;99.90;;;;;;5016804;28;20193;-77
2023/12/08 11:16:48;;;;;;;15.53;12.27;;;5.50;99.90;;;;;;5040243;28;20202;-77
2023/12/08 11:19:17;;;;;;;16.57;11.00;;;5.50;99.90;;;;;;5011065;28;20192;-77
2023/12/08 11:21:46;;;;;;;17.03;11.30;;;5.50;99.90;;;;;;5011197;28;20224;-77
2023/12/08 11:24:14;;;;;;;16.37;12.37;;;5.50;99.90;;;;;;5016296;28;20197;-77
2023/12/08 11:26:50;;;;;;;15.30;11.63;;;5.40;99.90;;;;;;5027071;28;20212;-77
2023/12/08 11:29:25;;;;;;;16.30;11.60;;;5.40;99.90;;;;;;5016207;28;20242;-77
2023/12/08 11:32:00;;;;;;;17.73;12.17;;;5.40;99.90;;;;;;5010351;28;20232;-77
2023/12/08 11:34:34;;;;;;;18.77;12.73;;;5.40;99.90;;;;;;5032849;28;20202;-77
2023/12/08 11:37:03;;;;;;;14.17;11.27;;;5.40;99.90;;;;;;5016240;28;20205;-77
2023/12/08 11:39:42;;;;;;;19.37;12.20;;;5.40;99.90;;;;;;5022181;28;20191;-77
2023/12/08 11:42:10;;;;;;;18.37;12.40;;;5.40;99.90;;;;;;5027336;28;20219;-77
2023/12/08 11:45:01;;;;;;;18.00;12.00;;;5.40;99.90;;;;;;5027441;28;20203;-76
2023/12/08 11:47:29;;;;;;;16.37;12.23;;;5.50;99.90;;;;;;5026359;28;20225;-77
2023/12/08 11:49:57;;;;;;;16.83;12.33;;;5.50;99.90;;;;;;5025485;28;20585;-77
2023/12/08 11:52:28;;;;;;;16.67;11.97;;;5.50;99.90;;;;;;5023150;28;20222;-77
2023/12/08 11:55:07;;;;;;;18.77;12.63;;;5.50;99.90;;;;;;5031620;28;20268;-77
2023/12/08 11:57:39;;;;;;;20.37;13.37;;;5.50;99.90;;;;;;5031520;28;20212;-77
2023/12/08 12:00:10;;;;;;;16.50;12.70;;;5.50;99.90;;;;;;5041517;28;20198;-77
2023/12/08 12:02:41;;;;;;;17.43;12.60;;;5.50;99.90;;;;;;5017972;28;20216;-77
2023/12/08 12:05:09;;;;;;;17.03;12.23;;;5.50;99.90;;;;;;5033524;28;20198;-77
2023/12/08 12:07:38;;;;;;;19.77;14.20;;;5.60;99.90;;;;;;5033279;28;20199;-77
2023/12/08 12:10:11;;;;;;;18.27;13.10;;;5.60;99.90;;;;;;5032726;28;20212;-77
2023/12/08 12:12:42;;;;;;;19.43;14.70;;;5.60;99.90;;;;;;5028839;28;20218;-76
2023/12/08 12:15:11;;;;;;;19.10;13.30;;;5.60;99.90;;;;;;5032696;28;20201;-76
2023/12/08 12:17:39;;;;;;;24.13;14.17;;;5.60;99.90;;;;;;5032772;28;20209;-76
2023/12/08 12:20:09;;;;;;;24.97;14.80;;;5.60;99.90;;;;;;5032911;28;20201;-78
2023/12/08 12:22:39;;;;;;;20.50;13.37;;;5.70;99.90;;;;;;5045413;28;20223;-77
2023/12/08 12:25:08;;;;;;;20.60;14.07;;;5.70;99.90;;;;;;5032925;28;20205;-77
2023/12/08 12:27:39;;;;;;;25.23;14.13;;;5.70;99.90;;;;;;5030812;28;20598;-77
2023/12/08 12:30:08;;;;;;;23.13;15.10;;;5.80;99.90;;;;;;5028709;28;20217;-77
2023/12/08 12:32:36;;;;;;;24.90;14.30;;;5.80;99.90;;;;;;5033653;28;20222;-77
2023/12/08 12:35:03;;;;;;;24.77;14.17;;;5.80;99.90;;;;;;5022711;28;20197;-77
2023/12/08 12:37:31;;;;;;;21.77;15.17;;;5.80;99.90;;;;;;5022557;28;20206;-77
2023/12/08 12:40:00;;;;;;;20.37;13.70;;;5.90;99.90;;;;;;5019306;28;20206;-77
2023/12/08 12:42:27;;;;;;;27.13;15.23;;;5.90;99.90;;;;;;5037057;28;20217;-76
2023/12/08 12:44:55;;;;;;;23.07;15.70;;;5.90;99.90;;;;;;5027563;28;20445;-76
2023/12/08 12:47:25;;;;;;;26.83;14.47;;;5.90;99.90;;;;;;5025002;28;20197;-76
2023/12/08 12:50:04;;;;;;;24.10;15.53;;;6.00;99.90;;;;;;5018360;28;20219;-76
2023/12/08 12:52:32;;;;;;;22.00;13.60;;;6.00;99.90;;;;;;5028194;28;20233;-75
2023/12/08 12:55:01;;;;;;;22.07;15.60;;;6.10;99.90;;;;;;5026446;28;20547;-77
2023/12/08 12:57:41;;;;;;;25.33;14.37;;;6.10;99.90;;;;;;5026511;28;20204;-76
2023/12/08 13:00:10;;;;;;;23.43;14.73;;;6.20;99.90;;;;;;5030606;28;20205;-76
2023/12/08 13:02:37;;;;;;;23.80;15.27;;;6.20;99.90;;;;;;5024512;28;20716;-76
2023/12/08 13:05:07;;;;;;;19.40;14.87;;;6.20;99.90;;;;;;5012694;28;20206;-76
2023/12/08 13:07:34;;;;;;;22.53;14.00;;;6.20;99.90;;;;;;5028498;28;20221;-75
2023/12/08 13:10:05;;;;;;;22.97;14.07;;;6.20;99.90;;;;;;5018809;28;20238;-76
2023/12/08 13:12:32;;;;;;;22.10;14.63;;;6.30;99.90;;;;;;5020192;28;20598;-76
2023/12/08 13:15:01;;;;;;;30.67;16.07;;;6.30;99.90;;;;;;5023301;28;20209;-76
2023/12/08 13:17:28;;;;;;;21.53;13.90;;;6.30;99.90;;;;;;5011831;28;20203;-76
2023/12/08 13:19:56;;;;;;;26.57;14.20;;;6.30;99.90;;;;;;5019889;28;20566;-76
2023/12/08 13:22:23;;;;;;;23.10;15.37;;;6.40;99.90;;;;;;5016725;28;20210;-76
2023/12/08 13:24:51;;;;;;;20.87;14.93;;;6.40;99.90;;;;;;5027401;28;20205;-76
2023/12/08 13:27:19;;;;;;;25.40;14.07;;;6.50;99.90;;;;;;5020704;28;20221;-76
2023/12/08 13:29:47;;;;;;;25.27;14.50;;;6.40;99.90;;;;;;5028575;28;20190;-77
2023/12/08 13:32:14;;;;;;;22.37;15.00;;;6.50;99.90;;;;;;5028586;28;20226;-76
2023/12/08 13:34:42;;;;;;;18.57;13.37;;;6.50;99.90;;;;;;5027851;28;20207;-76
2023/12/08 13:37:09;;;;;;;23.17;14.77;;;6.50;99.90;;;;;;5030689;28;20222;-77
2023/12/08 13:39:37;;;;;;;17.90;12.43;;;6.60;99.90;;;;;;5021626;28;20207;-77
2023/12/08 13:42:05;;;;;;;19.07;13.40;;;6.60;99.90;;;;;;5030510;28;20222;-76
2023/12/08 13:44:34;;;;;;;22.03;14.67;;;6.60;99.90;;;;;;5046178;28;20207;-76